Météo Nord-Pas-de-Calais   La météo au plus près de chez vous

Station météorologique

Observations météo à Cayenne Suzini (97302)

97302005 5 m Dernier relevé à 13:12
29.7°C
Humidité 85 % Vent 4.3 km/h

Journée consultée

Dimanche 6 Septembre 2026

Synthèse de la journée

Périodes de référence en UTC

Température maximale

30.1°C

à 13:00

06h 06h

Température minimale

26.7°C

à 10:54

18h 18h

Rafale maximale

18 km/h

à 13:12

00h 00h

Précipitations

0 mm

Cumul quotidien

06h 06h

Ensoleillement

1h 31 mins

Durée quotidienne

00h 00h

Graphiques de la journée

Heure locale Réduire

Données détaillées

Relevés météo

Pas de 6 minutes Afficher les relevés infra-horaires
Relevés météo détaillés à Cayenne Suzini pour le Dimanche 6 Septembre 2026
Heure Température °C Point de rosée °C Humidité % Vent moyen (raf.), km/h Précipitations mm Ensoleillement min Rayonnement global W/m²
13:12 29.7 °C 25.2 °C 77 % 9 km/h (18 km/h) 0 mm0 mm 6 min 118.3 W/m²
13:06 29.7 °C 25 °C 76 % 9 km/h (16 km/h) 0 mm0 mm 6 min 115.9 W/m²
13:00 29.9 °C 25.2 °C 76 % 7 km/h (14 km/h) 0 mm0 mm 6 min 115.7 W/m²
12:54 29.7 °C 25.7 °C 79 % 7 km/h (13 km/h) 0 mm0 mm 6 min 100.5 W/m²
12:48 29.5 °C 25.3 °C 78 % 8 km/h (14 km/h) 0 mm0 mm 6 min 91.8 W/m²
12:42 29.4 °C 25.2 °C 78 % 8 km/h (14 km/h) 0 mm0 mm 6 min 83.8 W/m²
12:36 29.3 °C 25.1 °C 78 % 7 km/h (14 km/h) 0 mm0 mm 6 min 82.2 W/m²
12:30 29.1 °C 25.1 °C 79 % 6 km/h (14 km/h) 0 mm0 mm 5 min 66.4 W/m²
12:24 28.8 °C 25.4 °C 82 % 4 km/h (11 km/h) 0 mm0 mm 6 min 69.2 W/m²
12:18 28.4 °C 25.6 °C 85 % 3 km/h (7 km/h) 0 mm0 mm 6 min 68.7 W/m²
12:12 28 °C 25.2 °C 85 % 4 km/h (9 km/h) 0 mm0 mm 3 min 30.8 W/m²
12:06 27.9 °C 25.5 °C 87 % 4 km/h (9 km/h) 0 mm0 mm 6 min 32.5 W/m²
12:00 27.7 °C 25.3 °C 87 % 4 km/h (8 km/h) 0 mm0 mm 6 min 30.3 W/m²
11:54 27.3 °C 25.3 °C 89 % 5 km/h (8 km/h) 0 mm0 mm 6 min 23 W/m²
11:48 27 °C 25.4 °C 91 % 4 km/h (7 km/h) 0 mm0 mm 6 min 13.4 W/m²
11:42 26.8 °C 25.2 °C 91 % 3 km/h (6 km/h) 0 mm0 mm 5 min 7.7 W/m²
11:36 26.8 °C 25.2 °C 91 % 4 km/h (7 km/h) 0 mm0 mm 0 min 4.3 W/m²
11:30 26.8 °C 25.2 °C 91 % 4 km/h (6 km/h) 0 mm0 mm 0 min 0 W/m²
11:24 26.8 °C 25 °C 90 % 4 km/h (7 km/h) 0 mm0 mm 0 min 0 W/m²
11:18 26.9 °C 25.1 °C 90 % 4 km/h (7 km/h) 0 mm0 mm 0 min 0 W/m²
11:12 26.9 °C 25.1 °C 90 % 4 km/h (8 km/h) 0 mm0 mm 0 min 0 W/m²
11:06 26.8 °C 25.2 °C 91 % 4 km/h (8 km/h) 0 mm0 mm 0 min 0 W/m²
11:00 26.7 °C 25.1 °C 91 % 4 km/h (6 km/h) 0 mm0 mm 0 min 0 W/m²
10:54 26.7 °C 25.1 °C 91 % 3 km/h (6 km/h) 0 mm0 mm 0 min 0 W/m²
10:48 26.8 °C 25 °C 90 % 3 km/h (5 km/h) 0 mm0 mm 0 min 0 W/m²
10:42 26.9 °C 25.1 °C 90 % 3 km/h (5 km/h) 0 mm0 mm 0 min 0 W/m²
10:36 27 °C 25 °C 89 % 3 km/h (6 km/h) 0 mm0 mm 0 min 0 W/m²
10:30 27.1 °C 25.1 °C 89 % 3 km/h (6 km/h) 0 mm0 mm 0 min 0 W/m²
10:24 27.2 °C 25.2 °C 89 % 4 km/h (8 km/h) 0 mm0 mm 0 min 0 W/m²
10:18 27.2 °C 25.2 °C 89 % 4 km/h (8 km/h) 0 mm0 mm 0 min 0 W/m²
10:12 27.2 °C 25 °C 88 % 4 km/h (8 km/h) 0 mm0 mm 0 min 0 W/m²
10:06 27.3 °C 25.1 °C 88 % 4 km/h (8 km/h) 0 mm0 mm 0 min 0 W/m²
10:00 27.4 °C 25.2 °C 88 % 4 km/h (8 km/h) 0 mm0 mm 0 min 0 W/m²
09:54 27.4 °C 25 °C 87 % 4 km/h (8 km/h) 0 mm0 mm 0 min 0 W/m²
09:48 27.4 °C 25 °C 87 % 4 km/h (9 km/h) 0 mm0 mm 0 min 0 W/m²
09:42 27.5 °C 25.1 °C 87 % 4 km/h (9 km/h) 0 mm0 mm 0 min 0 W/m²
09:36 27.5 °C 24.9 °C 86 % 5 km/h (9 km/h) 0 mm0 mm 0 min 0 W/m²
09:30 27.4 °C 25 °C 87 % 5 km/h (9 km/h) 0 mm0 mm 0 min 0 W/m²
09:24 27.4 °C 25 °C 87 % 5 km/h (9 km/h) 0 mm0 mm 0 min 0 W/m²
09:18 27.4 °C 25 °C 87 % 5 km/h (9 km/h) 0 mm0 mm 0 min 0 W/m²
09:12 27.4 °C 25 °C 87 % 4 km/h (9 km/h) 0 mm0 mm 0 min 0 W/m²
09:06 27.3 °C 24.9 °C 87 % 4 km/h (8 km/h) 0 mm0 mm 0 min 0 W/m²
09:00 27.4 °C 24.8 °C 86 % 5 km/h (11 km/h) 0 mm0 mm 0 min 0 W/m²
08:54 27.4 °C 24.8 °C 86 % 5 km/h (11 km/h) 0 mm0 mm 0 min 0 W/m²
08:48 27.4 °C 24.8 °C 86 % 4 km/h (8 km/h) 0 mm0 mm 0 min 0 W/m²
08:42 27.5 °C 24.9 °C 86 % 4 km/h (9 km/h) 0 mm0 mm 0 min 0 W/m²
08:36 27.5 °C 24.9 °C 86 % 4 km/h (9 km/h) 0 mm0 mm 0 min 0 W/m²
08:30 27.6 °C 24.8 °C 85 % 6 km/h (13 km/h) 0 mm0 mm 0 min 0 W/m²
08:24 27.7 °C 24.9 °C 85 % 7 km/h (13 km/h) 0 mm0 mm 0 min 0 W/m²
08:18 27.7 °C 25.1 °C 86 % 7 km/h (12 km/h) 0 mm0 mm 0 min 0 W/m²
08:12 27.8 °C 25.2 °C 86 % 7 km/h (12 km/h) 0 mm0 mm 0 min 0 W/m²
08:06 27.7 °C 25.1 °C 86 % 6 km/h (11 km/h) 0 mm0 mm 0 min 0 W/m²
08:00 27.7 °C 24.9 °C 85 % 6 km/h (12 km/h) 0 mm0 mm 0 min 0 W/m²
07:54 27.7 °C 24.7 °C 84 % 5 km/h (12 km/h) 0 mm0 mm 0 min 0 W/m²
07:48 27.6 °C 24.6 °C 84 % 5 km/h (12 km/h) 0 mm0 mm 0 min 0 W/m²
07:42 27.5 °C 24.4 °C 83 % 4 km/h (11 km/h) 0 mm0 mm 0 min 0 W/m²
07:36 27.3 °C 24.6 °C 85 % 3 km/h (6 km/h) 0 mm0 mm 0 min 0 W/m²
07:30 27.3 °C 24.9 °C 87 % 3 km/h (9 km/h) 0 mm0 mm 0 min 0 W/m²
07:24 27.2 °C 25 °C 88 % 2 km/h (9 km/h) 0 mm0 mm 0 min 0 W/m²
07:18 27.2 °C 25 °C 88 % 2 km/h (6 km/h) 0 mm0 mm 0 min 0 W/m²
07:12 27.3 °C 25.1 °C 88 % 3 km/h (7 km/h) 0 mm0 mm 0 min 0 W/m²
07:06 27.2 °C 25 °C 88 % 3 km/h (7 km/h) 0 mm0 mm 0 min 0 W/m²
07:00 27.2 °C 24.8 °C 87 % 2 km/h (6 km/h) 0 mm0 mm 0 min 0 W/m²
06:54 27.3 °C 24.9 °C 87 % 3 km/h (6 km/h) 0 mm0 mm 0 min 0 W/m²
06:48 27.3 °C 24.7 °C 86 % 3 km/h (6 km/h) 0 mm0 mm 0 min 0 W/m²
06:42 27.4 °C 24.5 °C 84 % 3 km/h (7 km/h) 0 mm0 mm 0 min 0 W/m²
06:36 27.4 °C 24.5 °C 84 % 3 km/h (7 km/h) 0 mm0 mm 0 min 0 W/m²
06:30 27.4 °C 24.5 °C 84 % 3 km/h (9 km/h) 0 mm0 mm 0 min 0 W/m²
06:24 27.4 °C 24.5 °C 84 % 4 km/h (8 km/h) 0 mm0 mm 0 min 0 W/m²
06:18 27.4 °C 24.3 °C 83 % 5 km/h (10 km/h) 0 mm0 mm 0 min 0 W/m²
06:12 27.4 °C 24.3 °C 83 % 4 km/h (10 km/h) 0 mm0 mm 0 min 0 W/m²
06:06 27.4 °C 24.1 °C 82 % 4 km/h (7 km/h) 0 mm0 mm 0 min 0 W/m²
06:00 27.5 °C 23.9 °C 81 % 4 km/h (7 km/h) 0 mm0 mm 0 min 0 W/m²
05:54 27.6 °C 24 °C 81 % 4 km/h (7 km/h) 0 mm0 mm 0 min 0 W/m²
05:48 27.7 °C 24.1 °C 81 % 4 km/h (9 km/h) 0 mm0 mm 0 min 0 W/m²
05:42 27.8 °C 24.2 °C 81 % 5 km/h (9 km/h) 0 mm0 mm 0 min 0 W/m²
05:36 27.8 °C 24.6 °C 83 % 5 km/h (8 km/h) 0 mm0 mm 0 min 0 W/m²
05:30 27.8 °C 24.8 °C 84 % 5 km/h (11 km/h) 0 mm0 mm 0 min 0 W/m²
05:24 27.9 °C 25.1 °C 85 % 5 km/h (11 km/h) 0 mm0 mm 0 min 0 W/m²
05:18 27.9 °C 25.3 °C 86 % 5 km/h (10 km/h) 0 mm0 mm 0 min 0 W/m²
05:12 27.9 °C 25.1 °C 85 % 5 km/h (10 km/h) 0 mm0 mm 0 min 0 W/m²
05:06 28 °C 25 °C 84 % 5 km/h (11 km/h) 0 mm0 mm 0 min 0 W/m²
05:00 27.9 °C 24.9 °C 84 % 5 km/h (11 km/h) 0 mm0 mm 0 min 0 W/m²
04:54 27.9 °C 24.9 °C 84 % 4 km/h (8 km/h) 0 mm0 mm 0 min 0 W/m²
04:48 28 °C 25 °C 84 % 4 km/h (9 km/h) 0 mm0 mm 0 min 0 W/m²
04:42 28 °C 25 °C 84 % 4 km/h (11 km/h) 0 mm0 mm 0 min 0 W/m²
04:36 27.9 °C 24.9 °C 84 % 4 km/h (11 km/h) 0 mm0 mm 0 min 0 W/m²
04:30 27.9 °C 24.9 °C 84 % 4 km/h (8 km/h) 0 mm0 mm 0 min 0 W/m²
04:24 28 °C 25 °C 84 % 3 km/h (8 km/h) 0 mm0 mm 0 min 0 W/m²
04:18 28 °C 25 °C 84 % 3 km/h (6 km/h) 0 mm0 mm 0 min 0 W/m²
04:12 28.1 °C 24.9 °C 83 % 4 km/h (8 km/h) 0 mm0 mm 0 min 0 W/m²
04:06 28.1 °C 25.1 °C 84 % 4 km/h (8 km/h) 0 mm0 mm 0 min 0 W/m²
04:00 28.3 °C 25.1 °C 83 % 4 km/h (9 km/h) 0 mm0 mm 0 min 0 W/m²
03:54 28.2 °C 25.2 °C 84 % 3 km/h (7 km/h) 0 mm0 mm 0 min 0 W/m²
03:48 28.2 °C 25 °C 83 % 3 km/h (7 km/h) 0 mm0 mm 0 min 0 W/m²
03:42 28 °C 24.8 °C 83 % 4 km/h (10 km/h) 0 mm0 mm 0 min 0 W/m²
03:36 28.1 °C 24.9 °C 83 % 4 km/h (10 km/h) 0 mm0 mm 0 min 0 W/m²
03:30 28.1 °C 24.7 °C 82 % 3 km/h (7 km/h) 0 mm0 mm 0 min 0 W/m²
03:24 28.2 °C 24.6 °C 81 % 2 km/h (5 km/h) 0 mm0 mm 0 min 0 W/m²
03:18 28.2 °C 24.6 °C 81 % 3 km/h (8 km/h) 0 mm0 mm 0 min 0 W/m²
03:12 28.3 °C 24.7 °C 81 % 4 km/h (10 km/h) 0 mm0 mm 0 min 0 W/m²
03:06 28.2 °C 24.6 °C 81 % 5 km/h (9 km/h) 0 mm0 mm 0 min 0 W/m²
03:00 28.3 °C 24.7 °C 81 % 5 km/h (10 km/h) 0 mm0 mm 0 min 0 W/m²
02:54 28.2 °C 24.4 °C 80 % 5 km/h (9 km/h) 0 mm0 mm 0 min 0 W/m²
02:48 28.3 °C 24.5 °C 80 % 5 km/h (9 km/h) 0 mm0 mm 0 min 0 W/m²
02:42 28.1 °C 24.3 °C 80 % 4 km/h (8 km/h) 0 mm0 mm 0 min 0 W/m²
02:36 28 °C 24.2 °C 80 % 3 km/h (8 km/h) 0 mm0 mm 0 min 0 W/m²
02:30 28 °C 24 °C 79 % 2 km/h (6 km/h) 0 mm0 mm 0 min 0 W/m²
02:24 28.1 °C 24.1 °C 79 % 2 km/h (6 km/h) 0 mm0 mm 0 min 0 W/m²
02:18 28.1 °C 24.1 °C 79 % 2 km/h (6 km/h) 0 mm0 mm 0 min 0 W/m²
02:12 28.2 °C 24 °C 78 % 3 km/h (8 km/h) 0 mm0 mm 0 min 0 W/m²
02:06 28.3 °C 23.9 °C 77 % 3 km/h (9 km/h) 0 mm0 mm 0 min 0 W/m²
02:00 28.4 °C 24 °C 77 % 4 km/h (9 km/h) 0 mm0 mm 0 min 0 W/m²
01:54 28.4 °C 23.8 °C 76 % 3 km/h (9 km/h) 0 mm0 mm 0 min 0 W/m²
01:48 28.5 °C 23.9 °C 76 % 4 km/h (10 km/h) 0 mm0 mm 0 min 0 W/m²
01:42 28.6 °C 24 °C 76 % 6 km/h (11 km/h) 0 mm0 mm 0 min 0 W/m²
01:36 28.6 °C 23.7 °C 75 % 6 km/h (11 km/h) 0 mm0 mm 0 min 0 W/m²
01:30 28.5 °C 23.6 °C 75 % 5 km/h (10 km/h) 0 mm0 mm 0 min 0 W/m²
01:24 28.4 °C 24 °C 77 % 4 km/h (7 km/h) 0 mm0 mm 0 min 0 W/m²
01:18 28.5 °C 24.3 °C 78 % 4 km/h (9 km/h) 0 mm0 mm 0 min 0 W/m²
01:12 28.5 °C 24.3 °C 78 % 5 km/h (12 km/h) 0 mm0 mm 0 min 0 W/m²
01:06 28.4 °C 24.6 °C 80 % 4 km/h (12 km/h) 0 mm0 mm 0 min 0 W/m²
01:00 28.4 °C 24.6 °C 80 % 4 km/h (8 km/h) 0 mm0 mm 0 min 0 W/m²
00:54 28.4 °C 24.6 °C 80 % 4 km/h (10 km/h) 0 mm0 mm 0 min 0 W/m²
00:48 28.3 °C 24.5 °C 80 % 3 km/h (10 km/h) 0 mm0 mm 0 min 0 W/m²
00:42 28.4 °C 24.4 °C 79 % 3 km/h (6 km/h) 0 mm0 mm 0 min 0 W/m²
00:36 28.5 °C 24.7 °C 80 % 4 km/h (9 km/h) 0 mm0 mm 0 min 0 W/m²
00:30 28.6 °C 24.6 °C 79 % 4 km/h (9 km/h) 0 mm0 mm 0 min 0 W/m²
00:24 28.7 °C 24.5 °C 78 % 4 km/h (8 km/h) 0 mm0 mm 0 min 0 W/m²
00:18 28.8 °C 24.4 °C 77 % 5 km/h (11 km/h) 0 mm0 mm 0 min 0 W/m²
00:12 28.9 °C 24.2 °C 76 % 6 km/h (12 km/h) 0 mm0 mm 0 min 0 W/m²
00:06 29 °C 23.9 °C 74 % 6 km/h (15 km/h) 0 mm0 mm 0 min 0 W/m²
00:00 29.1 °C 24 °C 74 % 6 km/h (15 km/h) 0 mm0 mm 0 min 0 W/m²

Données via Météo-France

Relevés météo à Cayenne Suzini

Cette page rassemble les observations de la station de Cayenne Suzini : température, humidité, vent, précipitations et pression atmosphérique. Les graphiques facilitent le suivi de la journée, tandis que le tableau donne accès aux mesures horaires et infra-horaires disponibles.

Pour replacer ces mesures dans leur contexte, consultez la climatologie de Cayenne Suzini ainsi que ses normales et records. Retrouvez aussi la carte des observations météo en temps réel.